createdAt,value
2018-12-13T00:00:05.373Z,967.90
2018-12-13T00:01:05.362Z,967.87
2018-12-13T00:02:05.359Z,967.89
2018-12-13T00:03:05.344Z,967.93
2018-12-13T00:04:05.332Z,967.91
2018-12-13T00:05:05.324Z,967.87
2018-12-13T00:06:05.313Z,967.87
2018-12-13T00:07:05.321Z,967.86
2018-12-13T00:08:05.298Z,967.86
2018-12-13T00:09:05.285Z,967.84
2018-12-13T00:10:05.273Z,967.87
2018-12-13T00:11:05.270Z,967.87
2018-12-13T00:12:05.251Z,967.85
2018-12-13T00:13:05.242Z,967.85
2018-12-13T00:14:05.232Z,967.84
2018-12-13T00:15:05.223Z,967.85
2018-12-13T00:16:05.213Z,967.77
2018-12-13T00:17:05.205Z,967.83
2018-12-13T00:18:05.191Z,967.84
2018-12-13T00:19:05.185Z,967.80
2018-12-13T00:20:05.171Z,967.79
2018-12-13T00:21:05.179Z,967.81
2018-12-13T00:22:05.162Z,967.86
2018-12-13T00:23:05.141Z,967.81
2018-12-13T00:24:05.133Z,967.75
2018-12-13T00:25:05.123Z,967.85
2018-12-13T00:26:05.112Z,967.84
2018-12-13T00:27:05.103Z,967.81
2018-12-13T00:28:05.093Z,967.85
2018-12-13T00:29:05.083Z,967.87
2018-12-13T00:30:05.071Z,967.82
2018-12-13T00:31:05.061Z,967.75
2018-12-13T00:32:05.061Z,967.75
2018-12-13T00:33:05.041Z,967.84
2018-12-13T00:34:05.030Z,967.81
2018-12-13T00:35:05.021Z,967.79
2018-12-13T00:36:05.012Z,967.75
2018-12-13T00:37:05.003Z,967.77
2018-12-13T00:38:04.992Z,967.77
2018-12-13T00:39:04.982Z,967.72
2018-12-13T00:40:04.971Z,967.68
2018-12-13T00:41:04.965Z,967.71
2018-12-13T00:42:04.952Z,967.67
2018-12-13T00:43:04.957Z,967.66
2018-12-13T00:44:04.931Z,967.68
2018-12-13T00:45:04.921Z,967.67
2018-12-13T00:46:04.912Z,967.68
2018-12-13T00:47:04.903Z,967.68
2018-12-13T00:48:04.891Z,967.66
2018-12-13T00:49:04.880Z,967.61
2018-12-13T00:50:04.871Z,967.61
2018-12-13T00:51:04.885Z,967.62
2018-12-13T00:52:04.854Z,967.60
2018-12-13T00:53:04.843Z,967.59
2018-12-13T00:54:04.835Z,967.60
2018-12-13T00:55:04.821Z,967.61
2018-12-13T00:56:04.809Z,967.53
2018-12-13T00:57:04.884Z,967.55
2018-12-13T00:58:04.792Z,967.57
2018-12-13T00:59:04.783Z,967.57
2018-12-13T01:00:04.781Z,967.52
2018-12-13T01:01:04.767Z,967.55
2018-12-13T01:02:04.753Z,967.56
2018-12-13T01:03:04.742Z,967.57
2018-12-13T01:04:04.734Z,967.59
2018-12-13T01:05:04.735Z,967.54
2018-12-13T01:06:04.716Z,967.58
2018-12-13T01:07:04.818Z,967.61
2018-12-13T01:08:04.699Z,967.58
2018-12-13T01:09:04.685Z,967.56
2018-12-13T01:10:04.750Z,967.61
2018-12-13T01:11:04.665Z,967.61
2018-12-13T01:12:04.760Z,967.58
2018-12-13T01:13:04.644Z,967.54
2018-12-13T01:14:04.633Z,967.56
2018-12-13T01:15:04.624Z,967.63
2018-12-13T01:16:04.615Z,967.63
2018-12-13T01:17:04.685Z,967.59
2018-12-13T01:18:04.601Z,967.63
2018-12-13T01:19:04.584Z,967.62
2018-12-13T01:20:04.573Z,967.64
2018-12-13T01:21:04.564Z,967.58
2018-12-13T01:22:04.554Z,967.62
2018-12-13T01:23:04.546Z,967.68
2018-12-13T01:24:04.543Z,967.65
2018-12-13T01:25:04.524Z,967.62
2018-12-13T01:26:04.513Z,967.56
2018-12-13T01:27:04.503Z,967.54
2018-12-13T01:28:04.494Z,967.55
2018-12-13T01:29:04.484Z,967.54
2018-12-13T01:30:04.473Z,967.59
2018-12-13T01:31:04.468Z,967.60
2018-12-13T01:32:04.453Z,967.58
2018-12-13T01:33:04.444Z,967.60
2018-12-13T01:34:04.433Z,967.58
2018-12-13T01:35:04.431Z,967.61
2018-12-13T01:36:04.419Z,967.58
2018-12-13T01:37:04.403Z,967.63
2018-12-13T01:38:04.393Z,967.60
2018-12-13T01:39:04.381Z,967.55
2018-12-13T01:40:04.373Z,967.58
2018-12-13T01:41:04.364Z,967.64
2018-12-13T01:42:04.358Z,967.58
2018-12-13T01:43:04.344Z,967.62
2018-12-13T01:44:04.333Z,967.61
2018-12-13T01:45:04.333Z,967.58
2018-12-13T01:46:04.312Z,967.61
2018-12-13T01:47:04.304Z,967.57
2018-12-13T01:48:04.291Z,967.52
2018-12-13T01:49:04.282Z,967.56
2018-12-13T01:50:04.269Z,967.46
2018-12-13T01:51:04.268Z,967.48
2018-12-13T01:52:04.250Z,967.49
2018-12-13T01:53:04.243Z,967.47
2018-12-13T01:54:04.229Z,967.47
2018-12-13T01:55:04.220Z,967.45
2018-12-13T01:56:04.208Z,967.45
2018-12-13T01:57:04.200Z,967.41
2018-12-13T01:58:04.191Z,967.45
2018-12-13T01:59:04.177Z,967.45
2018-12-13T02:00:04.168Z,967.51
2018-12-13T02:01:04.158Z,967.43
2018-12-13T02:02:04.149Z,967.48
2018-12-13T02:03:04.137Z,967.45
2018-12-13T02:04:04.132Z,967.49
2018-12-13T02:05:04.123Z,967.41
2018-12-13T02:06:04.107Z,967.45
2018-12-13T02:07:04.098Z,967.43
2018-12-13T02:08:04.090Z,967.42
2018-12-13T02:09:04.076Z,967.39
2018-12-13T02:10:04.070Z,967.39
2018-12-13T02:11:04.056Z,967.32
2018-12-13T02:12:04.051Z,967.37
2018-12-13T02:13:04.038Z,967.33
2018-12-13T02:14:04.029Z,967.35
2018-12-13T02:15:04.015Z,967.33
2018-12-13T02:16:04.005Z,967.33
2018-12-13T02:17:03.995Z,967.29
2018-12-13T02:18:03.984Z,967.30
2018-12-13T02:19:03.975Z,967.32
2018-12-13T02:20:03.964Z,967.27
2018-12-13T02:21:03.958Z,967.27
2018-12-13T02:22:03.948Z,967.20
2018-12-13T02:23:03.936Z,967.19
2018-12-13T02:24:03.928Z,967.19
2018-12-13T02:25:03.926Z,967.22
2018-12-13T02:26:03.915Z,967.18
2018-12-13T02:27:03.893Z,967.20
2018-12-13T02:28:03.881Z,967.22
2018-12-13T02:29:03.873Z,967.16
2018-12-13T02:30:03.872Z,967.15
2018-12-13T02:31:03.855Z,967.19
2018-12-13T02:32:03.841Z,967.13
2018-12-13T02:33:03.839Z,967.13
2018-12-13T02:34:03.820Z,967.13
2018-12-13T02:35:03.813Z,967.13
2018-12-13T02:36:03.801Z,967.13
2018-12-13T02:37:06.248Z,967.11
2018-12-13T02:38:03.779Z,967.13
2018-12-13T02:39:03.769Z,967.14
2018-12-13T02:40:03.760Z,967.15
2018-12-13T02:41:03.769Z,967.12
2018-12-13T02:42:03.740Z,967.12
2018-12-13T02:43:03.733Z,967.12
2018-12-13T02:44:03.746Z,967.10
2018-12-13T02:45:03.710Z,967.06
2018-12-13T02:46:03.710Z,967.04
2018-12-13T02:47:03.686Z,967.02
2018-12-13T02:48:03.680Z,966.99
2018-12-13T02:49:03.673Z,966.98
2018-12-13T02:50:03.688Z,966.95
2018-12-13T02:51:03.647Z,966.93
2018-12-13T02:52:03.637Z,966.92
2018-12-13T02:53:03.634Z,966.92
2018-12-13T02:54:03.633Z,966.88
2018-12-13T02:55:03.607Z,966.88
2018-12-13T02:56:03.596Z,966.92
2018-12-13T02:57:03.584Z,966.86
2018-12-13T02:58:03.576Z,966.90
2018-12-13T02:59:03.589Z,966.90
2018-12-13T03:00:03.557Z,966.91
2018-12-13T03:01:03.623Z,966.88
2018-12-13T03:02:05.524Z,966.86
2018-12-13T03:03:03.539Z,966.93
2018-12-13T03:04:10.721Z,966.90
2018-12-13T03:05:56.977Z,966.91
2018-12-13T03:06:56.944Z,966.93
2018-12-13T03:08:50.400Z,966.96
2018-12-13T03:09:50.313Z,966.94
2018-12-13T03:11:43.178Z,966.96
2018-12-13T03:12:43.150Z,966.89
2018-12-13T03:14:36.020Z,966.93
2018-12-13T03:15:35.995Z,966.86
2018-12-13T03:17:28.931Z,966.92
2018-12-13T03:18:28.834Z,966.89
2018-12-13T03:20:21.714Z,966.87
2018-12-13T03:21:21.694Z,966.85
2018-12-13T03:23:14.547Z,966.84
2018-12-13T03:24:14.523Z,966.82
2018-12-13T03:26:07.403Z,966.84
2018-12-13T03:27:07.382Z,966.84
2018-12-13T03:29:00.248Z,966.82
2018-12-13T03:30:00.212Z,966.79
2018-12-13T03:31:53.084Z,966.73
2018-12-13T03:32:53.068Z,966.76
2018-12-13T03:34:45.975Z,966.76
2018-12-13T03:35:45.902Z,966.77
2018-12-13T03:37:39.275Z,966.74
2018-12-13T03:38:39.267Z,966.78
2018-12-13T03:40:32.145Z,966.80
2018-12-13T03:41:32.100Z,966.75
2018-12-13T03:43:24.973Z,966.82
2018-12-13T03:44:24.952Z,966.78
2018-12-13T03:46:17.809Z,966.75
2018-12-13T03:47:17.790Z,966.78
2018-12-13T03:49:10.743Z,966.76
2018-12-13T03:50:10.636Z,966.75
2018-12-13T03:52:03.505Z,966.73
2018-12-13T03:53:03.483Z,966.76
2018-12-13T03:54:56.371Z,966.70
2018-12-13T03:55:56.322Z,966.77
2018-12-13T03:57:49.707Z,966.74
2018-12-13T03:58:49.698Z,966.73
2018-12-13T04:00:43.072Z,966.68
2018-12-13T04:01:43.061Z,966.68
2018-12-13T04:03:35.980Z,966.66
2018-12-13T04:04:35.915Z,966.65
2018-12-13T04:06:28.756Z,966.65
2018-12-13T04:07:28.737Z,966.63
2018-12-13T04:09:21.621Z,966.63
2018-12-13T04:10:21.583Z,966.64
2018-12-13T04:12:14.466Z,966.63
2018-12-13T04:13:21.694Z,966.60
2018-12-13T04:15:07.291Z,966.64
2018-12-13T04:16:07.269Z,966.59
2018-12-13T04:18:00.146Z,966.56
2018-12-13T04:19:00.107Z,966.53
2018-12-13T04:20:53.618Z,966.55
2018-12-13T04:21:53.471Z,966.55
2018-12-13T04:23:46.321Z,966.55
2018-12-13T04:24:46.289Z,966.51
2018-12-13T04:26:39.663Z,966.52
2018-12-13T04:27:39.649Z,966.51
2018-12-13T04:29:33.176Z,966.53
2018-12-13T04:30:33.054Z,966.53
2018-12-13T04:32:25.889Z,966.53
2018-12-13T04:33:25.849Z,966.55
2018-12-13T04:35:18.733Z,966.52
2018-12-13T04:36:18.696Z,966.51
2018-12-13T04:38:11.542Z,966.49
2018-12-13T04:39:11.523Z,966.48
2018-12-13T04:41:04.406Z,966.46
2018-12-13T04:42:04.392Z,966.43
2018-12-13T04:43:58.222Z,966.46
2018-12-13T04:44:58.199Z,966.45
2018-12-13T04:46:51.067Z,966.50
2018-12-13T04:47:51.033Z,966.47
2018-12-13T04:49:43.946Z,966.46
2018-12-13T04:50:43.870Z,966.47
2018-12-13T04:52:36.733Z,966.42
2018-12-13T04:53:36.718Z,966.43
2018-12-13T04:55:29.578Z,966.44
2018-12-13T04:56:29.549Z,966.44
2018-12-13T04:58:22.408Z,966.42
2018-12-13T04:59:22.396Z,966.39
2018-12-13T05:01:15.341Z,966.41
2018-12-13T05:02:15.245Z,966.48
2018-12-13T05:04:08.201Z,966.40
2018-12-13T05:05:08.069Z,966.41
2018-12-13T05:06:08.057Z,966.44
2018-12-13T05:07:08.058Z,966.34
2018-12-13T05:08:08.040Z,966.39
2018-12-13T05:09:08.026Z,966.39
2018-12-13T05:10:08.025Z,966.38
2018-12-13T05:11:08.042Z,966.40
2018-12-13T05:12:07.996Z,966.35
2018-12-13T05:13:07.988Z,966.33
2018-12-13T05:14:08.091Z,966.36
2018-12-13T05:15:07.969Z,966.36
2018-12-13T05:16:07.967Z,966.36
2018-12-13T05:17:07.963Z,966.35
2018-12-13T05:18:07.934Z,966.35
2018-12-13T05:19:07.934Z,966.36
2018-12-13T05:20:07.915Z,966.34
2018-12-13T05:21:08.094Z,966.37
2018-12-13T05:22:07.891Z,966.35
2018-12-13T05:23:07.895Z,966.38
2018-12-13T05:24:07.873Z,966.38
2018-12-13T05:25:07.860Z,966.38
2018-12-13T05:26:07.848Z,966.36
2018-12-13T05:27:07.839Z,966.39
2018-12-13T05:28:07.827Z,966.36
2018-12-13T05:29:07.816Z,966.37
2018-12-13T05:30:07.806Z,966.36
2018-12-13T05:31:07.816Z,966.37
2018-12-13T05:32:07.788Z,966.38
2018-12-13T05:33:07.775Z,966.39
2018-12-13T05:34:07.765Z,966.38
2018-12-13T05:35:07.778Z,966.36
2018-12-13T05:36:07.745Z,966.35
2018-12-13T05:37:07.739Z,966.35
2018-12-13T05:38:07.729Z,966.32
2018-12-13T05:39:07.712Z,966.31
2018-12-13T05:40:07.700Z,966.33
2018-12-13T05:41:07.690Z,966.32
2018-12-13T05:42:07.683Z,966.32
2018-12-13T05:43:07.678Z,966.31
2018-12-13T05:44:07.656Z,966.35
2018-12-13T05:45:07.660Z,966.33
2018-12-13T05:46:07.647Z,966.35
2018-12-13T05:47:07.625Z,966.33
2018-12-13T05:48:07.614Z,966.29
2018-12-13T05:49:07.604Z,966.33
2018-12-13T05:50:07.625Z,966.36
2018-12-13T05:51:07.597Z,966.32
2018-12-13T05:52:07.573Z,966.33
2018-12-13T05:53:07.560Z,966.38
2018-12-13T05:54:07.549Z,966.33
2018-12-13T05:55:08.517Z,966.35
2018-12-13T05:56:07.528Z,966.33
2018-12-13T05:57:07.523Z,966.37
2018-12-13T05:58:07.619Z,966.36
2018-12-13T05:59:07.508Z,966.35
2018-12-13T06:00:07.496Z,966.37
2018-12-13T06:01:07.537Z,966.32
2018-12-13T06:02:07.478Z,966.36
2018-12-13T06:03:07.773Z,966.36
2018-12-13T06:04:07.449Z,966.46
2018-12-13T06:05:07.426Z,966.41
2018-12-13T06:06:07.424Z,966.42
2018-12-13T06:07:07.410Z,966.43
2018-12-13T06:08:07.398Z,966.41
2018-12-13T06:09:07.387Z,966.42
2018-12-13T06:10:07.377Z,966.44
2018-12-13T06:11:07.364Z,966.44
2018-12-13T06:12:07.356Z,966.41
2018-12-13T06:48:45.249Z,966.34
2018-12-13T06:49:45.161Z,966.32
2018-12-13T06:51:38.016Z,966.35
2018-12-13T06:52:37.990Z,966.36
2018-12-13T06:54:31.350Z,966.36
2018-12-13T06:55:31.336Z,966.39
2018-12-13T06:57:24.237Z,966.39
2018-12-13T06:58:24.217Z,966.38
2018-12-13T07:00:17.615Z,966.41
2018-12-13T07:01:17.719Z,966.40
2018-12-13T07:03:14.603Z,966.37
2018-12-13T07:04:12.188Z,966.38
2018-12-13T07:05:10.781Z,966.36
2018-12-13T07:06:10.697Z,966.43
2018-12-13T07:07:10.527Z,966.43
2018-12-13T07:08:10.399Z,966.41
2018-12-13T07:09:10.388Z,966.43
2018-12-13T07:10:10.376Z,966.43
2018-12-13T07:11:10.366Z,966.47
2018-12-13T07:12:10.352Z,966.48
2018-12-13T07:13:10.341Z,966.42
2018-12-13T07:14:10.327Z,966.49
2018-12-13T07:15:10.317Z,966.49
2018-12-13T07:16:10.306Z,966.43
2018-12-13T07:17:10.303Z,966.45
2018-12-13T07:18:10.290Z,966.47
2018-12-13T07:19:10.280Z,966.50
2018-12-13T07:20:10.263Z,966.48
2018-12-13T07:21:10.258Z,966.47
2018-12-13T07:22:10.246Z,966.43
2018-12-13T07:23:10.228Z,966.49
2018-12-13T07:24:10.219Z,966.46
2018-12-13T07:25:10.205Z,966.47
2018-12-13T07:26:10.201Z,966.46
2018-12-13T07:27:10.182Z,966.50
2018-12-13T07:28:10.173Z,966.47
2018-12-13T07:29:10.162Z,966.48
2018-12-13T07:30:10.181Z,966.53
2018-12-13T07:31:10.169Z,966.50
2018-12-13T07:32:10.129Z,966.52
2018-12-13T07:33:10.123Z,966.55
2018-12-13T07:34:10.123Z,966.53
2018-12-13T07:35:10.100Z,966.52
2018-12-13T07:36:10.086Z,966.46
2018-12-13T07:37:10.075Z,966.52
2018-12-13T07:38:14.260Z,966.52
2018-12-13T07:39:10.053Z,966.48
2018-12-13T07:40:10.042Z,966.47
2018-12-13T07:41:10.028Z,966.48
2018-12-13T07:42:10.020Z,966.51
2018-12-13T07:43:10.014Z,966.51
2018-12-13T07:44:10.028Z,966.51
2018-12-13T07:45:09.989Z,966.47
2018-12-13T07:46:09.976Z,966.52
2018-12-13T07:47:09.969Z,966.54
2018-12-13T07:48:09.959Z,966.48
2018-12-13T07:49:09.945Z,966.50
2018-12-13T07:50:09.939Z,966.51
2018-12-13T07:51:09.920Z,966.54
2018-12-13T07:52:09.911Z,966.49
2018-12-13T07:53:09.901Z,966.53
2018-12-13T07:54:09.892Z,966.49
2018-12-13T07:55:09.878Z,966.45
2018-12-13T07:56:09.867Z,966.46
2018-12-13T07:57:09.893Z,966.42
2018-12-13T07:58:09.843Z,966.47
2018-12-13T07:59:09.834Z,966.41
2018-12-13T08:00:09.821Z,966.43
2018-12-13T08:01:09.817Z,966.45
2018-12-13T08:02:09.800Z,966.47
2018-12-13T08:03:09.791Z,966.47
2018-12-13T08:04:09.780Z,966.43
2018-12-13T08:05:09.769Z,966.41
2018-12-13T08:06:09.757Z,966.40
2018-12-13T08:07:09.753Z,966.36
2018-12-13T08:08:09.736Z,966.40
2018-12-13T08:09:09.725Z,966.41
2018-12-13T08:10:09.712Z,966.41
2018-12-13T08:11:09.701Z,966.43
2018-12-13T08:12:09.690Z,966.49
2018-12-13T08:13:09.682Z,966.47
2018-12-13T08:14:09.668Z,966.44
2018-12-13T08:15:09.669Z,966.47
2018-12-13T08:16:09.647Z,966.41
2018-12-13T08:17:09.636Z,966.45
2018-12-13T08:18:09.626Z,966.42
2018-12-13T08:19:09.617Z,966.45
2018-12-13T08:20:09.602Z,966.43
2018-12-13T08:21:09.592Z,966.42
2018-12-13T08:22:09.579Z,966.36
2018-12-13T08:23:09.574Z,966.40
2018-12-13T08:24:09.557Z,966.41
2018-12-13T08:25:09.558Z,966.38
2018-12-13T08:26:09.535Z,966.40
2018-12-13T08:27:09.526Z,966.40
2018-12-13T08:28:09.518Z,966.39
2018-12-13T08:29:09.504Z,966.42
2018-12-13T08:30:09.498Z,966.36
2018-12-13T08:31:09.482Z,966.42
2018-12-13T08:32:09.479Z,966.41
2018-12-13T08:33:09.462Z,966.40
2018-12-13T08:34:09.449Z,966.36
2018-12-13T08:35:09.439Z,966.36
2018-12-13T08:36:10.946Z,966.35
2018-12-13T08:37:09.416Z,966.33
2018-12-13T08:38:09.406Z,966.33
2018-12-13T08:39:10.040Z,966.33
2018-12-13T08:40:09.384Z,966.32
2018-12-13T08:41:09.374Z,966.31
2018-12-13T08:42:09.366Z,966.31
2018-12-13T08:43:09.353Z,966.30
2018-12-13T08:44:09.342Z,966.28
2018-12-13T08:45:09.333Z,966.27
2018-12-13T08:46:09.321Z,966.22
2018-12-13T08:47:09.315Z,966.26
2018-12-13T08:48:09.300Z,966.20
2018-12-13T08:49:09.292Z,966.30
2018-12-13T08:50:09.278Z,966.21
2018-12-13T08:51:09.271Z,966.24
2018-12-13T08:52:09.257Z,966.23
2018-12-13T08:53:09.255Z,966.28
2018-12-13T08:54:09.246Z,966.32
2018-12-13T08:55:09.226Z,966.32
2018-12-13T08:56:09.213Z,966.31
2018-12-13T08:57:09.208Z,966.30
2018-12-13T08:58:09.192Z,966.32
2018-12-13T08:59:09.180Z,966.36
2018-12-13T09:00:09.173Z,966.34
2018-12-13T09:01:09.179Z,966.40
2018-12-13T09:02:09.179Z,966.38
2018-12-13T09:03:09.135Z,966.33
2018-12-13T09:04:09.130Z,966.32
2018-12-13T09:05:09.117Z,966.32
2018-12-13T09:06:09.107Z,966.27
2018-12-13T09:07:09.095Z,966.34
2018-12-13T09:08:09.083Z,966.31
2018-12-13T09:09:09.080Z,966.29
2018-12-13T09:10:10.386Z,966.26
2018-12-13T09:11:09.051Z,966.29
2018-12-13T09:12:09.040Z,966.28
2018-12-13T09:13:09.029Z,966.24
2018-12-13T09:14:09.016Z,966.22
2018-12-13T09:15:09.007Z,966.21
2018-12-13T09:16:09.008Z,966.26
2018-12-13T09:17:08.986Z,966.25
2018-12-13T09:18:08.976Z,966.27
2018-12-13T09:19:08.964Z,966.23
2018-12-13T09:20:08.951Z,966.23
2018-12-13T09:21:08.961Z,966.28
2018-12-13T09:22:08.933Z,966.24
2018-12-13T09:23:08.921Z,966.27
2018-12-13T09:24:08.911Z,966.26
2018-12-13T09:25:08.900Z,966.27
2018-12-13T09:26:08.887Z,966.26
2018-12-13T09:27:08.878Z,966.28
2018-12-13T09:28:08.866Z,966.35
2018-12-13T09:29:08.856Z,966.32
2018-12-13T09:30:08.848Z,966.33
2018-12-13T09:31:08.834Z,966.35
2018-12-13T09:32:08.823Z,966.28
2018-12-13T09:33:08.812Z,966.32
2018-12-13T09:34:08.804Z,966.23
2018-12-13T09:35:08.793Z,966.35
2018-12-13T09:36:08.782Z,966.32
2018-12-13T09:37:08.823Z,966.30
2018-12-13T09:38:08.757Z,966.26
2018-12-13T09:39:08.751Z,966.27
2018-12-13T09:40:08.738Z,966.26
2018-12-13T09:41:08.727Z,966.27
2018-12-13T09:42:08.722Z,966.21
2018-12-13T09:43:08.707Z,966.23
2018-12-13T09:44:08.695Z,966.25
2018-12-13T09:45:08.689Z,966.19
2018-12-13T09:46:08.673Z,966.22
2018-12-13T09:47:08.664Z,966.23
2018-12-13T09:48:08.652Z,966.22
2018-12-13T09:49:08.642Z,966.30
2018-12-13T09:50:08.630Z,966.25
2018-12-13T09:51:08.635Z,966.27
2018-12-13T09:52:08.610Z,966.22
2018-12-13T09:53:08.602Z,966.26
2018-12-13T09:54:08.589Z,966.25
2018-12-13T09:55:08.577Z,966.24
2018-12-13T09:56:08.565Z,966.22
2018-12-13T09:57:08.561Z,966.17
2018-12-13T09:58:08.547Z,966.16
2018-12-13T09:59:08.535Z,966.15
2018-12-13T10:00:08.524Z,966.12
2018-12-13T10:01:08.518Z,966.13
2018-12-13T10:02:08.502Z,966.13
2018-12-13T10:03:08.557Z,966.09
2018-12-13T10:04:08.484Z,966.09
2018-12-13T10:05:08.475Z,966.09
2018-12-13T10:06:08.464Z,966.05
2018-12-13T10:07:08.449Z,966.02
2018-12-13T10:08:08.445Z,966.00
2018-12-13T10:09:08.430Z,965.98
2018-12-13T10:10:08.423Z,965.99
2018-12-13T10:11:08.406Z,965.99
2018-12-13T10:12:08.400Z,966.01
2018-12-13T10:13:08.387Z,966.00
2018-12-13T10:14:08.378Z,965.96
2018-12-13T10:15:08.370Z,965.99
2018-12-13T10:16:08.357Z,965.96
2018-12-13T10:17:08.349Z,965.98
2018-12-13T10:18:08.344Z,965.97
2018-12-13T10:19:08.324Z,965.97
2018-12-13T10:20:08.333Z,965.91
2018-12-13T10:21:08.304Z,965.93
2018-12-13T10:22:11.738Z,965.90
2018-12-13T10:23:08.285Z,965.95
2018-12-13T10:24:08.270Z,965.90
2018-12-13T10:25:08.261Z,965.97
2018-12-13T10:26:08.249Z,965.95
2018-12-13T10:27:08.239Z,965.91
2018-12-13T10:28:08.227Z,965.90
2018-12-13T10:29:08.217Z,965.95
2018-12-13T10:30:08.206Z,965.91
2018-12-13T10:31:08.196Z,965.88
2018-12-13T10:32:08.187Z,965.88
2018-12-13T10:33:08.179Z,965.91
2018-12-13T10:34:08.166Z,965.82
2018-12-13T10:35:11.320Z,965.90
2018-12-13T10:36:08.144Z,965.89
2018-12-13T10:37:08.140Z,965.86
2018-12-13T10:38:08.123Z,965.87
2018-12-13T10:39:08.113Z,965.90
2018-12-13T10:40:08.104Z,965.91
2018-12-13T10:41:08.093Z,965.92
2018-12-13T10:42:08.086Z,965.92
2018-12-13T10:43:08.070Z,965.89
2018-12-13T10:44:08.061Z,965.88
2018-12-13T10:45:08.050Z,965.84
2018-12-13T10:46:08.042Z,965.83
2018-12-13T10:47:08.032Z,965.86
2018-12-13T10:48:08.024Z,965.82
2018-12-13T10:49:08.008Z,965.82
2018-12-13T10:50:07.994Z,965.81
2018-12-13T10:51:07.988Z,965.81
2018-12-13T10:52:07.978Z,965.78
2018-12-13T10:53:07.969Z,965.75
2018-12-13T10:54:07.956Z,965.75
2018-12-13T10:55:07.946Z,965.77
2018-12-13T10:56:07.935Z,965.71
2018-12-13T10:57:07.924Z,965.74
2018-12-13T10:58:07.914Z,965.71
2018-12-13T10:59:07.903Z,965.72
2018-12-13T11:00:07.893Z,965.74
2018-12-13T11:01:07.886Z,965.74
2018-12-13T11:02:07.872Z,965.72
2018-12-13T11:03:07.866Z,965.68
2018-12-13T11:04:07.854Z,965.70
2018-12-13T11:05:07.842Z,965.72
2018-12-13T11:06:07.832Z,965.70
2018-12-13T11:07:07.823Z,965.66
2018-12-13T11:08:07.811Z,965.68
2018-12-13T11:09:07.806Z,965.67
2018-12-13T11:10:08.214Z,965.69
2018-12-13T11:11:07.782Z,965.64
2018-12-13T11:12:07.772Z,965.68
2018-12-13T11:13:07.759Z,965.67
2018-12-13T11:14:07.750Z,965.56
2018-12-13T11:15:07.739Z,965.59
2018-12-13T11:16:07.728Z,965.60
2018-12-13T11:17:07.719Z,965.58
2018-12-13T11:18:07.708Z,965.56
2018-12-13T11:19:07.698Z,965.57
2018-12-13T11:20:07.687Z,965.55
2018-12-13T11:21:07.677Z,965.51
2018-12-13T11:22:07.667Z,965.51
2018-12-13T11:23:07.657Z,965.55
2018-12-13T11:24:07.646Z,965.55
2018-12-13T11:25:07.638Z,965.54
2018-12-13T11:26:07.627Z,965.58
2018-12-13T11:27:07.613Z,965.53
2018-12-13T11:28:07.603Z,965.54
2018-12-13T11:29:07.597Z,965.55
2018-12-13T11:30:07.583Z,965.53
2018-12-13T11:31:07.598Z,965.48
2018-12-13T11:32:07.565Z,965.53
2018-12-13T11:34:00.442Z,965.47
2018-12-13T11:35:00.409Z,965.42
2018-12-13T11:36:53.847Z,965.42
2018-12-13T11:37:53.790Z,965.43
2018-12-13T11:39:46.692Z,965.43
2018-12-13T11:40:46.664Z,965.39
2018-12-13T11:41:46.667Z,965.40
2018-12-13T11:43:39.690Z,965.34
2018-12-13T11:44:39.477Z,965.37
2018-12-13T11:46:32.329Z,965.44
2018-12-13T11:47:32.313Z,965.41
2018-12-13T11:49:25.691Z,965.43
2018-12-13T11:50:25.666Z,965.41
2018-12-13T11:52:18.538Z,965.41
2018-12-13T11:53:18.511Z,965.37
2018-12-13T11:55:11.907Z,965.31
2018-12-13T11:56:11.865Z,965.37
2018-12-13T11:58:04.780Z,965.37
2018-12-13T11:59:04.725Z,965.36
2018-12-13T12:00:58.204Z,965.35
2018-12-13T12:01:58.149Z,965.31
2018-12-13T12:03:50.955Z,965.32
2018-12-13T12:04:50.926Z,965.28
2018-12-13T12:06:44.316Z,965.25
2018-12-13T12:07:44.298Z,965.27
2018-12-13T12:09:37.725Z,965.28
2018-12-13T12:10:37.664Z,965.28
2018-12-13T12:12:30.695Z,965.27
2018-12-13T12:13:30.585Z,965.27
2018-12-13T12:15:23.911Z,965.28
2018-12-13T12:16:23.903Z,965.25
2018-12-13T12:17:23.852Z,965.22
2018-12-13T12:18:24.066Z,965.19
2018-12-13T12:19:23.832Z,965.17
2018-12-13T12:20:23.812Z,965.20
2018-12-13T12:21:23.796Z,965.23
2018-12-13T12:22:23.787Z,965.20
2018-12-13T12:23:23.778Z,965.19
2018-12-13T12:24:23.767Z,965.20
2018-12-13T12:25:23.759Z,965.20
2018-12-13T12:26:23.794Z,965.15
2018-12-13T12:27:23.782Z,965.18
2018-12-13T12:28:23.740Z,965.17
2018-12-13T12:29:23.733Z,965.19
2018-12-13T12:30:23.722Z,965.17
2018-12-13T12:31:23.703Z,965.16
2018-12-13T12:32:23.695Z,965.14
2018-12-13T12:33:23.690Z,965.11
2018-12-13T12:34:23.682Z,965.17
2018-12-13T12:35:23.663Z,965.15
2018-12-13T12:36:23.665Z,965.15
2018-12-13T12:37:23.649Z,965.13
2018-12-13T12:38:23.640Z,965.11
2018-12-13T12:39:23.626Z,965.09
2018-12-13T12:40:23.620Z,965.06
2018-12-13T12:41:23.607Z,965.07
2018-12-13T12:42:23.613Z,965.05
2018-12-13T12:43:23.590Z,964.98
2018-12-13T12:44:23.582Z,964.99
2018-12-13T12:45:23.576Z,964.98
2018-12-13T12:46:23.564Z,964.97
2018-12-13T12:47:23.570Z,964.96
2018-12-13T12:48:23.544Z,964.97
2018-12-13T12:49:23.536Z,964.93
2018-12-13T12:50:23.524Z,965.01
2018-12-13T12:51:23.514Z,964.99
2018-12-13T12:52:23.503Z,965.00
2018-12-13T12:53:23.495Z,964.95
2018-12-13T12:54:23.500Z,964.96
2018-12-13T12:55:23.475Z,964.91
2018-12-13T12:56:23.469Z,964.86
2018-12-13T12:57:23.457Z,964.87
2018-12-13T12:58:23.447Z,964.86
2018-12-13T12:59:23.440Z,964.89
2018-12-13T13:00:23.428Z,964.86
2018-12-13T13:01:23.416Z,964.87
2018-12-13T13:02:23.414Z,964.88
2018-12-13T13:03:23.398Z,964.84
2018-12-13T13:04:23.393Z,964.87
2018-12-13T13:05:23.380Z,964.85
2018-12-13T13:06:23.371Z,964.82
2018-12-13T13:07:23.363Z,964.83
2018-12-13T13:08:23.352Z,964.74
2018-12-13T13:09:25.197Z,964.75
2018-12-13T13:10:23.333Z,964.79
2018-12-13T13:11:23.319Z,964.75
2018-12-13T13:12:23.311Z,964.78
2018-12-13T13:13:23.309Z,964.78
2018-12-13T13:14:23.291Z,964.74
2018-12-13T13:15:23.284Z,964.73
2018-12-13T13:16:23.277Z,964.72
2018-12-13T13:17:23.260Z,964.72
2018-12-13T13:18:23.253Z,964.79
2018-12-13T13:19:23.254Z,964.72
2018-12-13T13:20:23.235Z,964.70
2018-12-13T13:21:23.225Z,964.75
2018-12-13T13:22:23.214Z,964.74
2018-12-13T13:23:23.227Z,964.78
2018-12-13T13:24:23.201Z,964.79
2018-12-13T13:25:23.188Z,964.75
2018-12-13T13:26:23.175Z,964.74
2018-12-13T13:27:23.162Z,964.76
2018-12-13T13:28:23.150Z,964.73
2018-12-13T13:29:23.146Z,964.71
2018-12-13T13:30:23.132Z,964.73
2018-12-13T13:31:23.123Z,964.72
2018-12-13T13:32:23.121Z,964.75
2018-12-13T13:33:23.107Z,964.72
2018-12-13T13:34:23.098Z,964.69
2018-12-13T13:35:23.085Z,964.71
2018-12-13T13:36:23.134Z,964.65
2018-12-13T13:37:23.067Z,964.73
2018-12-13T13:38:23.057Z,964.66
2018-12-13T13:39:23.050Z,964.60
2018-12-13T13:40:23.035Z,964.66
2018-12-13T13:41:23.027Z,964.67
2018-12-13T13:42:23.014Z,964.63
2018-12-13T13:43:23.007Z,964.68
2018-12-13T13:44:23.003Z,964.65
2018-12-13T13:45:22.982Z,964.63
2018-12-13T13:46:22.977Z,964.64
2018-12-13T13:47:22.964Z,964.67
2018-12-13T13:48:22.950Z,964.58
2018-12-13T13:49:22.941Z,964.59
2018-12-13T13:50:22.951Z,964.61
2018-12-13T13:51:22.928Z,964.57
2018-12-13T13:52:22.921Z,964.57
2018-12-13T13:53:22.905Z,964.57
2018-12-13T13:54:22.899Z,964.56
2018-12-13T13:55:22.883Z,964.54
2018-12-13T13:56:22.874Z,964.52
2018-12-13T13:57:22.865Z,964.52
2018-12-13T13:58:22.855Z,964.49